SV2BBO-2 Thessaloniki GR current weather conditions

sailwx.info

Wind from 293 at 2 knots gusting 5

Air temperature 18.3° C
Dewpoint -5.0° C

Last reported at 2017-Sep-23 05:08 UTC.
Time now 2017-Sep-23 05:35 UTC

Location: N 40°38' E 022°57'.
View on Google Maps.

See reports from other nearby stations

  
Tides and Currents Weather Stations Pressure Air Temp Water Temp Dewpoint Dewpoint Depression Visibility Wind Speed Wind Dir Waves Ship Positions
date/time (UTC)wind fromknots sea level pressurealtimeterstation pressurevisibilityair tempwater tempwave heightnotes
2017-Sep-23 05:08 293 2 gusting 5 18.3
2017-Sep-23 04:58 258 2 gusting 3 18.3
2017-Sep-23 04:48 292 2 gusting 3 18.9
2017-Sep-23 04:38 004 1 gusting 2 18.3
2017-Sep-23 04:28 007 1 gusting 5 18.3
2017-Sep-23 04:18 002 0 18.9
2017-Sep-23 04:08 352 4 gusting 6 18.9
2017-Sep-23 03:58 354 5 gusting 6 18.9
2017-Sep-23 03:48 008 3 gusting 6 18.9
2017-Sep-23 03:38 358 5 gusting 7 18.9
2017-Sep-23 03:28 012 4 gusting 5 18.9
2017-Sep-23 03:18 015 3 gusting 5 18.9
2017-Sep-23 03:08 355 6 gusting 5 18.9
2017-Sep-23 02:58 355 3 gusting 6 18.9
2017-Sep-23 02:38 001 6 gusting 7 19.4
2017-Sep-23 02:28 028 3 gusting 4 18.9
2017-Sep-23 02:18 008 5 gusting 4 19.4
2017-Sep-23 02:08 357 4 gusting 4 19.4
2017-Sep-23 01:58 004 2 gusting 5 19.4
2017-Sep-23 01:38 357 3 gusting 4 19.4
2017-Sep-23 01:28 319 3 gusting 5 19.4
2017-Sep-23 01:18 325 4 gusting 6 19.4
2017-Sep-23 01:08 342 5 gusting 8 19.4
2017-Sep-23 00:58 310 5 gusting 6 19.4
2017-Sep-23 00:48 337 4 gusting 4 19.4
2017-Sep-23 00:38 330 4 gusting 5 20.0
2017-Sep-23 00:28 296 5 gusting 6 20.0
2017-Sep-23 00:18 005 6 gusting 6 20.0
2017-Sep-23 00:08 316 4 gusting 6 20.0
2017-Sep-22 23:58 340 3 gusting 6 20.0
2017-Sep-22 23:48 329 3 gusting 5 20.0
2017-Sep-22 23:38 346 4 gusting 7 20.0
2017-Sep-22 23:28 346 6 gusting 11 20.0
2017-Sep-22 23:18 323 6 gusting 7 20.0
2017-Sep-22 23:08 349 5 gusting 5 20.0
2017-Sep-22 22:58 320 6 gusting 8 20.0
2017-Sep-22 22:48 337 5 gusting 10 20.0
2017-Sep-22 22:38 322 4 gusting 7 20.6
2017-Sep-22 22:28 356 5 gusting 6 20.0
2017-Sep-22 22:18 335 4 gusting 6 20.6
2017-Sep-22 22:08 332 4 gusting 5 20.6
2017-Sep-22 21:58 330 6 gusting 9 20.6
2017-Sep-22 21:48 341 4 gusting 6 20.6
2017-Sep-22 21:38 356 6 gusting 12 20.0
2017-Sep-22 21:28 016 6 gusting 9 20.6
2017-Sep-22 21:18 336 5 gusting 6 20.6
2017-Sep-22 21:08 349 7 gusting 9 20.6
2017-Sep-22 20:58 351 6 gusting 7 20.6
2017-Sep-22 20:48 024 6 gusting 13 20.6
2017-Sep-22 20:38 317 7 gusting 10 20.6
2017-Sep-22 20:28 351 6 gusting 7 20.6
2017-Sep-22 20:18 20.6
2017-Sep-22 20:08 018 4 gusting 10 20.6
2017-Sep-22 19:58 357 8 gusting 11 20.6
2017-Sep-22 19:48 001 6 gusting 6 20.6
2017-Sep-22 19:38 347 8 gusting 12 21.1
2017-Sep-22 19:28 005 11 gusting 15 21.1
2017-Sep-22 19:18 003 9 gusting 15 21.1
2017-Sep-22 19:08 353 9 gusting 9 21.1
2017-Sep-22 18:58 21.1
2017-Sep-22 18:48 356 5 gusting 8 21.1
2017-Sep-22 18:38 004 8 gusting 8 21.1
2017-Sep-22 18:28 354 7 gusting 12 21.1
2017-Sep-22 18:18 006 8 gusting 8 21.7
2017-Sep-22 18:08 352 12 gusting 18 21.7
2017-Sep-22 17:58 012 7 gusting 13 21.7
2017-Sep-22 17:48 357 10 gusting 14 21.7
2017-Sep-22 17:38 347 7 gusting 13 21.7
2017-Sep-22 17:28 005 11 gusting 16 21.7
2017-Sep-22 17:18 002 10 gusting 16 21.7
2017-Sep-22 17:08 354 10 gusting 9 21.7
2017-Sep-22 16:58 018 12 gusting 12 22.2
2017-Sep-22 16:48 006 9 gusting 11 22.2
2017-Sep-22 16:38 008 9 gusting 13 22.2
2017-Sep-22 16:28 352 7 gusting 11 22.2
2017-Sep-22 16:18 324 12 gusting 15 22.2
2017-Sep-22 16:08 357 8 gusting 13 22.2
2017-Sep-22 15:58 011 11 gusting 15 22.8
2017-Sep-22 15:48 014 11 gusting 14 22.8
2017-Sep-22 15:38 359 9 gusting 12 22.8
2017-Sep-22 15:28 347 10 gusting 13 23.3
2017-Sep-22 15:18 324 7 gusting 11 23.3
2017-Sep-22 15:08 344 6 gusting 9 23.9
2017-Sep-22 14:58 006 6 gusting 8 23.9
2017-Sep-22 14:48 002 9 gusting 13 23.9
2017-Sep-22 14:38 24.4
2017-Sep-22 14:28 346 5 gusting 11 23.9
2017-Sep-22 14:18 326 7 gusting 9 24.4
2017-Sep-22 14:08 354 10 gusting 11 24.4
2017-Sep-22 13:58 015 6 gusting 11 24.4
2017-Sep-22 13:48 296 7 gusting 11 24.4
2017-Sep-22 13:38 350 9 gusting 13 24.4
2017-Sep-22 13:28 309 7 gusting 11 24.4
2017-Sep-22 13:18 289 6 gusting 9 24.4
2017-Sep-22 13:08 320 3 gusting 7 23.9
2017-Sep-22 12:58 339 7 gusting 8 23.9
2017-Sep-22 12:48 277 6 gusting 8 23.9
2017-Sep-22 12:38 341 6 gusting 6 23.9
2017-Sep-22 12:28 349 6 gusting 6 23.9
2017-Sep-22 12:18 325 6 gusting 11 23.9
2017-Sep-22 12:08 338 5 gusting 6 23.3
2017-Sep-22 11:58 008 7 gusting 11 23.9
2017-Sep-22 11:48 350 5 gusting 10 23.9
2017-Sep-22 11:38 326 6 gusting 9 23.3
2017-Sep-22 11:28 300 7 gusting 9 23.3
2017-Sep-22 11:18 321 5 gusting 6 23.3
2017-Sep-22 11:08 009 7 gusting 11 23.9
2017-Sep-22 10:58 309 6 gusting 6 23.3
2017-Sep-22 10:48 305 6 gusting 12 23.3
2017-Sep-22 10:38 328 7 gusting 11 23.3
2017-Sep-22 10:28 337 8 gusting 9 22.8
2017-Sep-22 10:18 307 5 gusting 6 22.8
2017-Sep-22 10:08 317 6 gusting 14 22.8
2017-Sep-22 09:58 344 6 gusting 13 22.8
2017-Sep-22 09:48 003 6 gusting 11 22.8
2017-Sep-22 09:38 330 6 gusting 9 22.8
2017-Sep-22 09:28 353 9 gusting 12 22.2
2017-Sep-22 09:18 345 10 gusting 14 22.8
2017-Sep-22 09:08 319 6 gusting 7 22.2
2017-Sep-22 08:58 329 6 gusting 6 22.2
2017-Sep-22 08:48 353 7 gusting 9 22.2
2017-Sep-22 08:38 298 7 gusting 11 22.2
2017-Sep-22 08:28 322 9 gusting 11 22.2
2017-Sep-22 08:18 312 9 gusting 10 21.7
2017-Sep-22 08:08 306 9 gusting 10 22.2
2017-Sep-22 07:58 299 3 gusting 11 22.8
2017-Sep-22 07:48 354 6 gusting 8 22.2
2017-Sep-22 07:38 328 6 gusting 9 22.2
2017-Sep-22 07:28 325 6 gusting 13 22.2
2017-Sep-22 07:18 295 7 gusting 8 22.2
2017-Sep-22 07:08 319 5 gusting 6 21.7
2017-Sep-22 06:58 320 6 gusting 12 21.7
2017-Sep-22 06:48 357 6 gusting 12 20.6
2017-Sep-22 06:38 351 6 gusting 5 20.0
2017-Sep-22 06:28 024 4 gusting 7 20.6
2017-Sep-22 06:18 352 6 gusting 9 20.6
2017-Sep-22 06:08 002 4 gusting 7 20.6
2017-Sep-22 05:58 353 6 gusting 7 20.0
2017-Sep-22 05:48 345 6 gusting 7 18.9
2017-Sep-22 05:38 353 5 gusting 6 18.9
2017-Sep-22 05:28 346 5 gusting 6 18.3
2017-Sep-22 05:18 18.3
2017-Sep-22 05:08 312 5 gusting 7 18.3
2017-Sep-22 04:58 321 4 gusting 5 17.8
2017-Sep-22 04:48 003 5 gusting 8 17.8
2017-Sep-22 04:38 003 5 gusting 5 17.8
2017-Sep-22 04:28 357 7 gusting 7 17.8
2017-Sep-22 04:18 346 6 gusting 8 17.8
2017-Sep-22 04:08 354 5 gusting 8 18.3
2017-Sep-22 03:58 348 8 gusting 11 18.3
2017-Sep-22 03:48 002 6 gusting 8 18.3
2017-Sep-22 03:38 008 6 gusting 7 18.3
2017-Sep-22 03:28 18.3
2017-Sep-22 03:18 359 6 gusting 8 18.3
2017-Sep-22 03:08 331 9 gusting 12 18.3
2017-Sep-22 02:58 346 6 gusting 13 18.3
2017-Sep-22 02:48 010 4 gusting 5 18.3
2017-Sep-22 02:38 006 4 gusting 7 18.3
2017-Sep-22 02:28 319 5 gusting 6 18.9
2017-Sep-22 02:18 339 6 gusting 8 18.9
2017-Sep-22 02:08 311 5 gusting 8 18.9
2017-Sep-22 01:58 335 6 gusting 10 18.9
2017-Sep-22 01:48 313 7 gusting 8 18.9
2017-Sep-22 01:38 353 8 gusting 19 18.9
2017-Sep-22 01:28 349 6 gusting 14 18.9
2017-Sep-22 01:18 327 9 gusting 11 18.9
2017-Sep-22 01:08 011 7 gusting 6 18.9
2017-Sep-22 00:58 322 7 gusting 7 18.9
2017-Sep-22 00:48 327 7 gusting 9 19.4
2017-Sep-22 00:38 352 6 gusting 7 19.4
2017-Sep-22 00:28 008 6 gusting 9 19.4
2017-Sep-22 00:18 001 6 gusting 10 19.4
2017-Sep-22 00:08 356 6 gusting 8 19.4
2017-Sep-21 23:58 356 6 gusting 13 19.4
2017-Sep-21 23:48 336 6 gusting 13 19.4
2017-Sep-21 23:38 319 8 gusting 15 19.4
2017-Sep-21 23:28 347 7 gusting 8 19.4
2017-Sep-21 23:18 340 9 gusting 13 19.4
2017-Sep-21 23:08 317 6 gusting 11 20.0
2017-Sep-21 22:58 331 6 gusting 7 19.4
2017-Sep-21 22:48 296 6 gusting 7 20.0
2017-Sep-21 22:38 321 8 gusting 13 20.0
2017-Sep-21 22:28 319 8 gusting 14 20.0
2017-Sep-21 22:18 337 8 gusting 10 20.0
2017-Sep-21 22:08 007 7 gusting 10 20.0
2017-Sep-21 21:58 009 6 gusting 11 20.0
2017-Sep-21 21:48 323 7 gusting 8 20.6
2017-Sep-21 21:38 347 6 gusting 7 20.6
2017-Sep-21 21:28 322 9 gusting 13 20.6
2017-Sep-21 21:18 356 10 gusting 11 21.1
2017-Sep-21 21:08 306 6 gusting 10 21.1
2017-Sep-21 20:58 306 7 gusting 7 21.1
2017-Sep-21 20:48 324 8 gusting 12 21.1
2017-Sep-21 20:38 314 6 gusting 13 21.1
2017-Sep-21 20:28 300 7 gusting 12 21.1
2017-Sep-21 20:18 356 6 gusting 10 21.1
2017-Sep-21 20:08 339 5 gusting 12 21.7
2017-Sep-21 19:58 008 6 gusting 5 21.7
2017-Sep-21 19:48 342 6 gusting 12 21.7
2017-Sep-21 19:38 328 7 gusting 8 21.7
2017-Sep-21 19:28 004 10 gusting 14 21.7
2017-Sep-21 19:18 322 7 gusting 9 21.7
2017-Sep-21 19:08 314 6 gusting 7 22.2
2017-Sep-21 18:58 280 7 gusting 13 22.2
2017-Sep-21 18:48 334 6 gusting 8 22.2
2017-Sep-21 18:38 009 7 gusting 10 22.2
2017-Sep-21 18:28 347 7 gusting 7 22.8
2017-Sep-21 18:18 338 4 gusting 12 22.8
2017-Sep-21 18:08 008 6 gusting 7 22.8
2017-Sep-21 17:58 337 6 gusting 6 23.3
2017-Sep-21 17:48 003 6 gusting 12 23.3
2017-Sep-21 17:38 347 7 gusting 11 23.9
2017-Sep-21 17:28 319 6 gusting 11 23.9
2017-Sep-21 17:18 331 6 gusting 6 23.9
2017-Sep-21 17:08 329 7 gusting 10 23.9
2017-Sep-21 16:58 353 6 gusting 8 23.9
2017-Sep-21 16:48 333 6 gusting 6 23.9
2017-Sep-21 16:38 337 6 gusting 11 24.4
2017-Sep-21 16:28 279 6 gusting 9 24.4
2017-Sep-21 16:18 340 5 gusting 8 24.4
2017-Sep-21 16:08 315 6 gusting 6 24.4
2017-Sep-21 15:58 323 5 gusting 7 24.4
2017-Sep-21 15:48 350 6 gusting 10 25.0
2017-Sep-21 15:38 343 5 gusting 8 25.0
2017-Sep-21 15:28 310 6 gusting 7 25.0
2017-Sep-21 15:18 342 7 gusting 10 25.6
2017-Sep-21 15:08 306 6 gusting 6 26.1
2017-Sep-21 14:58 286 6 gusting 8 26.1
2017-Sep-21 14:48 292 5 gusting 4 26.1
2017-Sep-21 14:38 006 6 gusting 9 26.1
2017-Sep-21 14:28 290 4 gusting 5 26.1
2017-Sep-21 14:18 324 6 gusting 7 26.1
2017-Sep-21 14:08 306 6 gusting 9 26.1
2017-Sep-21 13:58 296 6 gusting 10 26.1
2017-Sep-21 13:48 244 3 gusting 4 26.1
2017-Sep-21 13:38 259 5 gusting 6 26.1
2017-Sep-21 13:28 229 4 gusting 6 26.1
2017-Sep-21 13:18 263 3 gusting 6 26.7
2017-Sep-21 13:08 300 4 gusting 6 26.7
2017-Sep-21 12:58 307 6 gusting 9 26.7
2017-Sep-21 12:48 311 3 gusting 5 26.7
2017-Sep-21 12:38 326 3 gusting 5 26.7
2017-Sep-21 12:28 306 3 gusting 6 26.7
2017-Sep-21 12:18 309 3 gusting 6 26.1
2017-Sep-21 12:08 262 5 gusting 8 26.1
2017-Sep-21 11:58 271 6 gusting 7 26.1
2017-Sep-21 11:48 267 6 gusting 6 25.6
2017-Sep-21 11:38 264 4 gusting 6 25.6
2017-Sep-21 11:28 307 6 gusting 6 25.6
2017-Sep-21 11:18 314 5 gusting 6 25.6
2017-Sep-21 11:08 271 5 gusting 6 25.6
2017-Sep-21 10:58 192 3 gusting 5 25.6
2017-Sep-21 10:48 280 5 gusting 6 25.0
2017-Sep-21 10:38 256 5 gusting 6 25.0
2017-Sep-21 10:28 263 4 gusting 6 25.0
2017-Sep-21 10:18 273 5 gusting 5 25.0
2017-Sep-21 10:08 274 6 gusting 7 25.0
2017-Sep-21 09:58 295 5 gusting 8 24.4
2017-Sep-21 09:48 298 4 gusting 4 24.4
2017-Sep-21 09:38 291 3 gusting 5 24.4
2017-Sep-21 09:28 290 7 gusting 7 24.4
2017-Sep-21 09:18 254 5 gusting 6 23.9
2017-Sep-21 09:08 275 6 gusting 8 24.4
2017-Sep-21 08:58 293 6 gusting 9 24.4
2017-Sep-21 08:48 287 6 gusting 7 24.4
2017-Sep-21 08:38 317 3 gusting 4 24.4
2017-Sep-21 08:28 309 6 gusting 7 24.4
2017-Sep-21 08:18 288 6 gusting 10 24.4
2017-Sep-21 08:08 299 3 gusting 9 24.4
2017-Sep-21 07:58 288 6 gusting 6 24.4
2017-Sep-21 07:48 324 6 gusting 7 25.0
2017-Sep-21 07:38 347 5 gusting 6 25.0
2017-Sep-21 07:28 311 3 gusting 5 25.0
2017-Sep-21 07:18 302 7 gusting 9 24.4
2017-Sep-21 07:08 253 2 gusting 2 24.4
2017-Sep-21 06:58 292 4 gusting 5 24.4
2017-Sep-21 06:47 290 4 gusting 7 23.9
2017-Sep-21 06:37 326 4 gusting 5 23.9
2017-Sep-21 06:27 281 2 gusting 3 23.9
2017-Sep-21 06:17 039 2 gusting 3 23.9
2017-Sep-21 06:07 319 4 gusting 3 23.9
2017-Sep-21 05:57 316 4 gusting 5 23.3
2017-Sep-21 05:47 317 7 gusting 8 22.8
2017-Sep-21 05:37 310 5 gusting 5 22.2
2017-Sep-21 05:27 287 5 gusting 5 21.7
2017-Sep-21 05:17 351 3 gusting 3 21.7
2017-Sep-21 05:07 330 3 gusting 5 21.7